Time;durP1;ratioP1;P1;durP2;ratioP2;P2;SDS_P1;SDS_P2;PMS_P1;PMS_P2;Temp;Humidity;BMP_temperature;BMP_pressure;BME280_temperature;BME280_humidity;BME280_pressure;Samples;Min_cycle;Max_cycle;Signal;HPM_P1;HPM_P2
2022/10/10 00:02:12;;;;;;;7.65;5.00;;;8.40;99.90;;;;;;5031490;28;20135;-78
2022/10/10 00:04:38;;;;;;;7.18;5.18;;;8.40;99.90;;;;;;5027937;28;20046;-78
2022/10/10 00:07:03;;;;;;;6.30;5.10;;;8.40;99.90;;;;;;5030301;28;20079;-78
2022/10/10 00:09:29;;;;;;;5.47;4.30;;;8.40;99.90;;;;;;5028285;28;20098;-78
2022/10/10 00:11:55;;;;;;;8.63;4.68;;;8.40;99.90;;;;;;5000547;28;20053;-78
2022/10/10 00:14:20;;;;;;;5.80;4.70;;;8.40;99.90;;;;;;5025996;28;20505;-77
2022/10/10 00:16:46;;;;;;;7.22;4.90;;;8.40;99.90;;;;;;5019548;28;20057;-78
2022/10/10 00:19:12;;;;;;;6.75;4.90;;;8.60;99.90;;;;;;5015360;28;20041;-77
2022/10/10 00:21:37;;;;;;;6.18;5.07;;;8.30;99.90;;;;;;5001154;28;20406;-78
2022/10/10 00:24:03;;;;;;;7.68;5.40;;;8.30;99.90;;;;;;5032586;28;20124;-78
2022/10/10 00:26:29;;;;;;;6.32;4.90;;;8.30;99.90;;;;;;5014948;28;20059;-78
2022/10/10 00:28:55;;;;;;;6.97;4.75;;;8.30;99.90;;;;;;5033152;28;20502;-78
2022/10/10 00:31:21;;;;;;;9.30;5.20;;;8.30;99.90;;;;;;5037268;28;20053;-78
2022/10/10 00:33:47;;;;;;;6.53;5.07;;;8.30;99.90;;;;;;5006406;28;20074;-78
2022/10/10 00:36:12;;;;;;;6.25;4.80;;;8.20;99.90;;;;;;5032854;28;20532;-77
2022/10/10 00:38:38;;;;;;;7.88;4.97;;;8.20;99.90;;;;;;5015498;28;20049;-78
2022/10/10 00:41:04;;;;;;;7.95;4.68;;;8.20;99.90;;;;;;5036093;28;20122;-78
2022/10/10 00:43:30;;;;;;;6.05;5.00;;;8.20;99.90;;;;;;5002081;28;20051;-78
2022/10/10 00:45:56;;;;;;;7.18;4.85;;;8.20;99.90;;;;;;5014878;28;20049;-78
2022/10/10 00:48:43;;;;;;;6.10;4.57;;;8.50;99.90;;;;;;5019309;28;20087;-78
2022/10/10 00:51:13;;;;;;;6.40;4.68;;;8.10;99.90;;;;;;5039110;28;21036;-78
2022/10/10 00:53:51;;;;;;;8.88;5.30;;;8.40;99.90;;;;;;5065156;28;20053;-78
2022/10/10 00:56:20;;;;;;;5.78;4.70;;;8.10;99.90;;;;;;5066799;28;20543;-78
2022/10/10 00:58:49;;;;;;;9.10;5.35;;;8.10;99.90;;;;;;5032454;28;20065;-78
2022/10/10 01:01:15;;;;;;;7.85;4.80;;;8.00;99.90;;;;;;5065485;28;22238;-78
2022/10/10 01:03:41;;;;;;;7.53;4.50;;;8.00;99.90;;;;;;5032393;28;20056;-78
2022/10/10 01:06:07;;;;;;;7.03;4.82;;;8.00;99.90;;;;;;5033323;28;20037;-77
2022/10/10 01:08:34;;;;;;;5.88;4.75;;;8.90;99.90;;;;;;5015533;28;20046;-78
2022/10/10 01:11:27;;;;;;;7.32;5.07;;;8.00;99.90;;;;;;5031437;28;20048;-78
2022/10/10 01:14:13;;;;;;;6.93;4.55;;;8.00;99.90;;;;;;5030112;28;20052;-77
2022/10/10 01:17:09;;;;;;;8.98;5.07;;;8.00;99.90;;;;;;5032158;28;20053;-78
2022/10/10 01:20:08;;;;;;;7.40;4.57;;;7.90;99.90;;;;;;5039779;28;20053;-78
2022/10/10 01:22:47;;;;;;;7.00;5.07;;;7.90;99.90;;;;;;5032499;28;20049;-78
2022/10/10 01:25:28;;;;;;;5.50;4.63;;;7.90;99.90;;;;;;5019251;28;20045;-78
2022/10/10 01:27:57;;;;;;;7.90;4.68;;;7.80;99.90;;;;;;5032419;28;20045;-78
2022/10/10 01:30:23;;;;;;;7.05;4.35;;;7.80;99.90;;;;;;5030253;28;20049;-78
2022/10/10 01:33:04;;;;;;;6.95;4.97;;;7.80;99.90;;;;;;5031561;28;20152;-78
2022/10/10 01:35:58;;;;;;;8.10;5.28;;;7.70;99.90;;;;;;5032100;28;20576;-78
2022/10/10 01:38:56;;;;;;;8.20;4.70;;;7.70;99.90;;;;;;5032447;28;20037;-78
2022/10/10 01:41:39;;;;;;;7.50;5.20;;;7.70;99.90;;;;;;5033265;28;20041;-78
2022/10/10 01:44:05;;;;;;;6.90;4.65;;;7.70;99.90;;;;;;5056977;28;20141;-78
2022/10/10 01:46:31;;;;;;;7.43;4.88;;;7.70;99.90;;;;;;5017681;28;20346;-78
2022/10/10 01:48:58;;;;;;;6.45;4.90;;;7.70;99.90;;;;;;5057216;28;20056;-78
2022/10/10 01:52:01;;;;;;;8.63;5.20;;;7.60;99.90;;;;;;5029936;28;20148;-78
2022/10/10 01:54:43;;;;;;;8.35;5.22;;;7.70;99.90;;;;;;5030732;28;20533;-77
2022/10/10 01:57:30;;;;;;;9.15;5.30;;;7.70;99.90;;;;;;5040972;28;20441;-78
2022/10/10 02:00:14;;;;;;;6.93;5.05;;;7.70;99.90;;;;;;5019860;28;20550;-78
2022/10/10 02:02:58;;;;;;;6.63;5.13;;;7.80;99.90;;;;;;5031300;28;20149;-78
2022/10/10 02:06:01;;;;;;;7.90;5.05;;;7.60;99.90;;;;;;5029796;28;20045;-78
2022/10/10 02:08:46;;;;;;;8.57;5.32;;;7.60;99.90;;;;;;5016261;28;20038;-77
2022/10/10 02:11:12;;;;;;;5.60;4.82;;;7.60;99.90;;;;;;5044914;28;20053;-78
2022/10/10 02:13:41;;;;;;;7.30;4.88;;;7.60;99.90;;;;;;5049552;28;20075;-78
2022/10/10 02:16:14;;;;;;;7.05;4.93;;;7.60;99.90;;;;;;5016813;28;20084;-77
2022/10/10 02:18:44;;;;;;;6.50;4.85;;;7.60;99.90;;;;;;5015823;28;20045;-78
2022/10/10 02:21:12;;;;;;;6.80;4.88;;;7.60;99.90;;;;;;5031536;28;20052;-78
2022/10/10 02:23:41;;;;;;;7.43;4.97;;;7.60;99.90;;;;;;5064195;28;20048;-78
2022/10/10 02:26:09;;;;;;;8.95;5.30;;;7.60;99.90;;;;;;5029360;28;20409;-78
2022/10/10 02:28:49;;;;;;;7.65;5.30;;;7.60;99.90;;;;;;5504188;22;20352;-80
2022/10/10 02:31:20;;;;;;;6.40;4.90;;;7.60;99.90;;;;;;5012994;28;20045;-81
2022/10/10 02:34:00;;;;;;;7.35;5.60;;;7.60;99.90;;;;;;5013525;28;20071;-81
2022/10/10 02:36:28;;;;;;;10.80;5.25;;;7.60;99.90;;;;;;4998795;28;20046;-81
2022/10/10 02:38:55;;;;;;;5.97;4.75;;;7.60;99.90;;;;;;5017109;28;20073;-81
2022/10/10 02:41:22;;;;;;;8.18;5.43;;;7.60;99.90;;;;;;5014586;28;20044;-81
2022/10/10 02:43:50;;;;;;;7.07;5.25;;;7.50;99.90;;;;;;5000973;28;20453;-81
2022/10/10 02:46:16;;;;;;;8.68;5.72;;;7.50;99.90;;;;;;4999512;28;20045;-81
2022/10/10 02:48:42;;;;;;;7.53;5.10;;;7.50;99.90;;;;;;5015711;28;20751;-81
2022/10/10 02:51:09;;;;;;;7.25;5.55;;;7.50;99.90;;;;;;5005361;28;20049;-81
2022/10/10 02:53:36;;;;;;;7.85;5.28;;;7.50;99.90;;;;;;5013261;28;20486;-81
2022/10/10 02:56:02;;;;;;;7.13;5.22;;;9.00;99.90;;;;;;5020786;28;20053;-81
2022/10/10 02:58:28;;;;;;;6.65;5.32;;;8.00;99.90;;;;;;5000416;28;20037;-81
2022/10/10 03:00:54;;;;;;;8.45;4.90;;;7.50;99.90;;;;;;5021740;28;20052;-81
2022/10/10 03:03:19;;;;;;;7.18;5.35;;;7.50;99.90;;;;;;4996065;28;20071;-82
2022/10/10 03:05:45;;;;;;;6.55;5.00;;;7.40;99.90;;;;;;5000446;28;20053;-81
2022/10/10 03:08:11;;;;;;;7.68;4.75;;;7.50;99.90;;;;;;5012785;28;20041;-82
2022/10/10 03:10:37;;;;;;;7.15;5.05;;;7.50;99.90;;;;;;4995722;28;20084;-81
2022/10/10 03:13:03;;;;;;;8.73;5.40;;;7.40;99.90;;;;;;5015426;28;20053;-81
2022/10/10 03:15:28;;;;;;;11.13;5.25;;;7.50;99.90;;;;;;5011730;28;20476;-81
2022/10/10 03:17:54;;;;;;;7.28;5.05;;;7.50;99.90;;;;;;5015632;28;20057;-81
2022/10/10 03:20:20;;;;;;;6.20;4.18;;;7.60;99.90;;;;;;4979492;28;20045;-82
2022/10/10 03:22:45;;;;;;;7.97;5.20;;;7.50;99.90;;;;;;4999496;28;20515;-81
2022/10/10 03:25:11;;;;;;;7.78;4.97;;;7.50;99.90;;;;;;4980808;28;20661;-81
2022/10/10 03:27:37;;;;;;;6.30;4.68;;;7.20;99.90;;;;;;5013574;28;20551;-81
2022/10/10 03:30:04;;;;;;;7.10;5.15;;;7.50;99.90;;;;;;4982414;28;20137;-81
2022/10/10 03:32:29;;;;;;;5.50;4.80;;;7.50;99.90;;;;;;5012477;28;20114;-81
2022/10/10 03:34:55;;;;;;;6.07;4.40;;;7.60;99.90;;;;;;5014769;28;20045;-82
2022/10/10 03:37:21;;;;;;;8.05;5.07;;;7.60;99.90;;;;;;4998504;28;20104;-82
2022/10/10 03:39:47;;;;;;;6.65;5.47;;;7.60;99.90;;;;;;4996699;28;20089;-81
2022/10/10 03:42:12;;;;;;;6.55;5.35;;;7.60;99.90;;;;;;4971885;28;20099;-82
2022/10/10 03:44:38;;;;;;;7.80;4.93;;;7.70;99.90;;;;;;4999543;28;20230;-81
2022/10/10 03:47:03;;;;;;;6.32;5.35;;;7.70;99.90;;;;;;4999236;28;20075;-81
2022/10/10 03:49:29;;;;;;;7.72;4.93;;;7.70;99.90;;;;;;4981867;28;20048;-81
2022/10/10 03:51:55;;;;;;;7.10;5.15;;;8.30;99.90;;;;;;5012519;28;20060;-81
2022/10/10 03:54:21;;;;;;;7.43;5.72;;;7.70;99.90;;;;;;5003480;28;20093;-81
2022/10/10 03:56:46;;;;;;;7.90;4.93;;;7.70;99.90;;;;;;4985839;28;20053;-81
2022/10/10 03:59:12;;;;;;;8.02;5.13;;;7.70;99.90;;;;;;4995762;28;20065;-82
2022/10/10 04:01:38;;;;;;;6.82;5.00;;;7.80;99.90;;;;;;4982510;28;20156;-80
2022/10/10 04:04:04;;;;;;;8.40;5.13;;;7.80;99.90;;;;;;4998839;28;20045;-81
2022/10/10 04:06:29;;;;;;;6.15;5.10;;;7.80;99.90;;;;;;5014113;28;20081;-82
2022/10/10 04:08:55;;;;;;;7.22;5.35;;;7.80;99.90;;;;;;4999088;28;20049;-80
2022/10/10 04:11:21;;;;;;;7.43;5.30;;;7.80;99.90;;;;;;4998465;28;20042;-81
2022/10/10 04:13:46;;;;;;;8.93;5.50;;;7.90;99.90;;;;;;4994921;28;20053;-81
2022/10/10 04:16:12;;;;;;;8.98;5.10;;;8.30;99.90;;;;;;4998108;28;20140;-81
2022/10/10 04:18:38;;;;;;;6.57;5.00;;;8.70;99.90;;;;;;4997654;28;20038;-81
2022/10/10 04:21:05;;;;;;;6.97;4.97;;;8.70;99.90;;;;;;5005070;28;20049;-81
2022/10/10 04:23:31;;;;;;;7.05;4.78;;;7.90;99.90;;;;;;5012311;28;20088;-81
2022/10/10 04:25:57;;;;;;;7.65;5.50;;;7.90;99.90;;;;;;5014880;28;20133;-81
2022/10/10 04:28:22;;;;;;;7.78;5.13;;;7.90;99.90;;;;;;4998691;28;20140;-80
2022/10/10 04:30:48;;;;;;;6.25;4.97;;;7.90;99.90;;;;;;5010700;28;20061;-81
2022/10/10 04:33:14;;;;;;;7.90;4.97;;;7.90;99.90;;;;;;4971369;28;20054;-81
2022/10/10 04:35:40;;;;;;;6.82;5.03;;;8.30;99.90;;;;;;4979686;28;20137;-81
2022/10/10 04:38:06;;;;;;;7.43;5.55;;;8.80;99.90;;;;;;5014677;28;20435;-81
2022/10/10 04:40:32;;;;;;;6.35;5.30;;;7.90;99.90;;;;;;5006287;28;20050;-81
2022/10/10 04:42:58;;;;;;;6.68;4.85;;;7.90;99.90;;;;;;5016776;28;20041;-80
2022/10/10 04:45:25;;;;;;;6.90;5.20;;;7.90;99.90;;;;;;5013583;28;20048;-81
2022/10/10 04:47:54;;;;;;;8.82;4.90;;;7.90;99.90;;;;;;4998929;28;20057;-81
2022/10/10 04:50:20;;;;;;;6.80;4.97;;;7.80;99.90;;;;;;5019101;28;20046;-80
2022/10/10 04:52:46;;;;;;;6.88;4.80;;;7.80;99.90;;;;;;5002798;28;20125;-81
2022/10/10 04:55:12;;;;;;;5.97;4.80;;;7.80;99.90;;;;;;4999292;28;20054;-81
2022/10/10 04:57:37;;;;;;;8.18;5.20;;;7.80;99.90;;;;;;4998699;28;20037;-81
2022/10/10 05:00:04;;;;;;;7.93;4.80;;;7.80;99.90;;;;;;4995931;28;20046;-81
2022/10/10 05:02:30;;;;;;;6.60;4.90;;;7.70;99.90;;;;;;4993547;28;20053;-81
2022/10/10 05:04:56;;;;;;;7.45;5.35;;;7.70;99.90;;;;;;4996364;28;20053;-81
2022/10/10 05:07:21;;;;;;;6.60;4.90;;;7.70;99.90;;;;;;5001862;28;20037;-81
2022/10/10 05:09:47;;;;;;;7.18;5.15;;;7.70;99.90;;;;;;5000316;28;20096;-81
2022/10/10 05:12:13;;;;;;;7.88;5.60;;;7.70;99.90;;;;;;5016077;28;20041;-81
2022/10/10 05:14:39;;;;;;;7.03;5.05;;;7.70;99.90;;;;;;5015762;28;20048;-80
2022/10/10 05:17:04;;;;;;;7.05;5.10;;;7.70;99.90;;;;;;4983175;28;20038;-81
2022/10/10 05:19:30;;;;;;;8.30;5.30;;;7.70;99.90;;;;;;5000931;28;20049;-80
2022/10/10 05:21:56;;;;;;;7.28;4.75;;;7.70;99.90;;;;;;4982926;28;20049;-81
2022/10/10 05:24:22;;;;;;;6.07;4.93;;;7.70;99.90;;;;;;5001518;28;20049;-81
2022/10/10 05:26:48;;;;;;;8.77;5.40;;;8.50;99.90;;;;;;5005531;28;20399;-81
2022/10/10 05:29:13;;;;;;;6.43;4.70;;;7.70;99.90;;;;;;4990122;28;20049;-79
2022/10/10 05:31:39;;;;;;;7.40;5.25;;;7.70;99.90;;;;;;5016137;28;20081;-80
2022/10/10 05:34:05;;;;;;;8.18;5.40;;;7.80;99.90;;;;;;5017605;28;20052;-80
2022/10/10 05:36:30;;;;;;;8.63;5.40;;;7.80;99.90;;;;;;4983345;28;20080;-81
2022/10/10 05:38:56;;;;;;;11.68;5.80;;;7.80;99.90;;;;;;5014885;28;20124;-81
2022/10/10 05:41:22;;;;;;;6.93;5.28;;;7.90;99.90;;;;;;5016127;28;20053;-89
2022/10/10 05:43:48;;;;;;;9.20;5.80;;;7.90;99.90;;;;;;4992432;28;20057;-79
2022/10/10 05:46:14;;;;;;;9.75;6.43;;;7.90;99.90;;;;;;5016054;28;20046;-79
2022/10/10 05:48:39;;;;;;;7.10;5.43;;;8.80;99.90;;;;;;5014130;28;20484;-79
2022/10/10 05:51:06;;;;;;;8.02;5.70;;;8.00;99.90;;;;;;5000723;28;20049;-80
2022/10/10 05:53:32;;;;;;;7.35;5.45;;;8.00;99.90;;;;;;4999959;28;20049;-80
2022/10/10 05:56:00;;;;;;;11.30;5.65;;;8.10;99.90;;;;;;5015223;28;20052;-80
2022/10/10 05:58:26;;;;;;;8.75;5.70;;;8.50;99.90;;;;;;5022562;28;20041;-80
2022/10/10 06:00:52;;;;;;;7.13;5.38;;;8.10;99.90;;;;;;5016623;28;20467;-80
2022/10/10 06:03:18;;;;;;;10.13;5.57;;;8.10;99.90;;;;;;4982752;28;20141;-80
2022/10/10 06:05:49;;;;;;;7.70;5.63;;;8.10;99.90;;;;;;5000732;28;20072;-80
2022/10/10 06:08:14;;;;;;;8.63;6.57;;;8.70;99.90;;;;;;5006402;28;20045;-78
2022/10/10 06:10:43;;;;;;;11.40;6.30;;;8.20;99.90;;;;;;5002099;28;20103;-80
2022/10/10 06:13:10;;;;;;;9.75;6.00;;;8.20;99.90;;;;;;5022925;28;20057;-80
2022/10/10 06:15:36;;;;;;;11.88;7.10;;;8.30;99.90;;;;;;5018134;28;20050;-81
2022/10/10 06:18:02;;;;;;;10.68;6.97;;;8.50;99.90;;;;;;5013515;28;20450;-80
2022/10/10 06:20:28;;;;;;;7.15;5.65;;;8.30;99.90;;;;;;5016151;28;20077;-82
2022/10/10 06:22:53;;;;;;;6.13;4.85;;;8.40;99.90;;;;;;5021209;28;20068;-81
2022/10/10 06:25:19;;;;;;;9.07;6.45;;;8.60;99.90;;;;;;5014329;28;20080;-80
2022/10/10 06:27:45;;;;;;;8.70;5.80;;;8.50;99.90;;;;;;5002503;28;20108;-80
2022/10/10 06:30:11;;;;;;;9.40;6.15;;;8.50;99.90;;;;;;4999603;28;20059;-81
2022/10/10 06:32:37;;;;;;;8.52;5.50;;;8.50;99.90;;;;;;5015972;28;20048;-81
2022/10/10 06:35:03;;;;;;;9.88;5.75;;;10.10;99.90;;;;;;5019915;28;20120;-80
2022/10/10 06:37:29;;;;;;;10.43;7.25;;;8.70;99.90;;;;;;5001899;28;20049;-81
2022/10/10 06:39:55;;;;;;;8.40;6.97;;;8.80;99.90;;;;;;5002596;28;20041;-82
2022/10/10 06:42:21;;;;;;;11.68;6.32;;;8.90;99.90;;;;;;5001083;28;20515;-81
2022/10/10 06:44:46;;;;;;;11.18;6.75;;;9.00;99.90;;;;;;5013291;28;20140;-81
2022/10/10 06:47:12;;;;;;;8.75;6.40;;;9.10;99.90;;;;;;4988895;28;20073;-80
2022/10/10 06:49:38;;;;;;;11.32;6.88;;;9.20;99.90;;;;;;5002303;28;20057;-81
2022/10/10 06:52:04;;;;;;;11.27;6.95;;;9.20;99.90;;;;;;5013917;28;20613;-82
2022/10/10 06:54:29;;;;;;;11.95;7.25;;;9.30;99.90;;;;;;4979793;28;20049;-81
2022/10/10 06:56:55;;;;;;;10.88;7.18;;;9.40;99.90;;;;;;4996299;28;20049;-80
2022/10/10 06:59:21;;;;;;;11.02;7.05;;;9.50;99.90;;;;;;5000368;28;20399;-81
2022/10/10 07:01:46;;;;;;;10.60;6.90;;;9.60;99.90;;;;;;5016065;28;20089;-79
2022/10/10 07:04:13;;;;;;;11.43;7.60;;;9.70;99.90;;;;;;5016503;28;20041;-84
2022/10/10 07:06:39;;;;;;;11.30;7.03;;;9.80;99.90;;;;;;5000612;28;20048;-81
2022/10/10 07:09:05;;;;;;;10.45;7.50;;;9.90;99.90;;;;;;5018331;28;20045;-81
2022/10/10 07:11:31;;;;;;;10.68;7.90;;;9.90;99.90;;;;;;5009225;28;20042;-81
2022/10/10 07:13:57;;;;;;;9.95;7.68;;;10.10;99.90;;;;;;5001816;28;20053;-81
2022/10/10 07:16:23;;;;;;;12.07;7.93;;;10.20;99.90;;;;;;5019353;28;20138;-80
2022/10/10 07:18:48;;;;;;;11.00;7.85;;;10.30;99.90;;;;;;4986761;28;20092;-83
2022/10/10 07:21:14;;;;;;;11.30;8.05;;;10.50;99.90;;;;;;5041345;28;20053;-81
2022/10/10 07:23:40;;;;;;;13.98;8.75;;;10.60;99.90;;;;;;5001967;28;20068;-80
2022/10/10 07:26:09;;;;;;;12.85;8.60;;;10.70;99.90;;;;;;5002180;28;20050;-80
2022/10/10 07:28:36;;;;;;;13.77;9.02;;;10.80;99.90;;;;;;5025787;28;20049;-80
2022/10/10 07:31:11;;;;;;;13.27;9.00;;;10.80;99.90;;;;;;5009773;28;20069;-81
2022/10/10 07:33:47;;;;;;;13.00;8.77;;;10.90;99.90;;;;;;5017461;28;20116;-82
2022/10/10 07:36:13;;;;;;;14.52;8.68;;;12.10;99.90;;;;;;5020114;28;20399;-80
2022/10/10 07:38:39;;;;;;;14.50;8.27;;;11.10;99.90;;;;;;5017413;28;20052;-82
2022/10/10 07:41:11;;;;;;;11.15;8.13;;;11.10;99.90;;;;;;5018844;28;20046;-82
2022/10/10 07:43:37;;;;;;;10.88;7.32;;;11.10;99.90;;;;;;5025327;28;20140;-81
2022/10/10 07:46:04;;;;;;;11.35;7.90;;;11.80;99.90;;;;;;5001684;28;20084;-82
2022/10/10 07:48:31;;;;;;;10.13;7.50;;;11.20;99.90;;;;;;5002994;28;20502;-81
2022/10/10 07:50:57;;;;;;;12.32;7.40;;;11.30;99.90;;;;;;5009803;28;20045;-82
2022/10/10 07:53:23;;;;;;;13.30;8.05;;;11.30;99.90;;;;;;5019311;28;20060;-81
2022/10/10 07:55:49;;;;;;;12.73;7.40;;;11.30;99.90;;;;;;5001514;28;20107;-81
2022/10/10 07:58:15;;;;;;;10.85;7.40;;;11.30;99.90;;;;;;5018128;28;20375;-81
2022/10/10 08:00:41;;;;;;;12.55;7.57;;;11.40;99.90;;;;;;5001581;28;20045;-81
2022/10/10 08:03:08;;;;;;;10.68;7.63;;;11.40;99.90;;;;;;5016306;28;20084;-80
2022/10/10 08:05:41;;;;;;;11.77;7.82;;;11.40;99.90;;;;;;5019003;28;20041;-82
2022/10/10 08:08:08;;;;;;;9.45;7.25;;;11.50;99.90;;;;;;5009059;28;20694;-82
2022/10/10 08:10:34;;;;;;;9.95;7.47;;;11.50;99.90;;;;;;5026048;28;20042;-82
2022/10/10 08:13:00;;;;;;;11.25;7.05;;;11.60;99.90;;;;;;5001503;28;20049;-82
2022/10/10 08:15:25;;;;;;;11.27;8.38;;;11.60;99.90;;;;;;5017483;28;20143;-82
2022/10/10 08:17:51;;;;;;;11.38;8.10;;;11.60;99.90;;;;;;5017468;28;20128;-82
2022/10/10 08:20:17;;;;;;;15.13;8.30;;;11.70;99.90;;;;;;5001548;28;20083;-82
2022/10/10 08:22:43;;;;;;;10.35;7.65;;;11.80;99.90;;;;;;5008520;28;20049;-82
2022/10/10 08:25:08;;;;;;;13.38;7.65;;;11.90;99.90;;;;;;5001809;28;20058;-82
2022/10/10 08:27:34;;;;;;;11.63;7.75;;;11.90;99.90;;;;;;5018209;28;20152;-82
2022/10/10 08:30:00;;;;;;;11.40;8.13;;;12.10;99.90;;;;;;5000397;28;20116;-81
2022/10/10 08:32:26;;;;;;;11.15;7.70;;;12.80;99.90;;;;;;5015405;28;20076;-82
2022/10/10 08:34:51;;;;;;;9.93;7.75;;;12.30;99.90;;;;;;5016982;28;20138;-81
2022/10/10 08:37:17;;;;;;;11.43;7.80;;;12.50;99.90;;;;;;5001212;28;20140;-81
2022/10/10 08:39:43;;;;;;;14.07;8.20;;;12.70;99.90;;;;;;5016819;28;20041;-82
2022/10/10 08:42:16;;;;;;;11.20;7.03;;;12.80;99.90;;;;;;5021715;28;20153;-82
2022/10/10 08:44:55;;;;;;;11.48;8.13;;;13.00;99.90;;;;;;5021582;28;20045;-82
2022/10/10 08:47:28;;;;;;;9.07;7.50;;;13.10;99.90;;;;;;5022956;28;20066;-82
2022/10/10 08:49:59;;;;;;;12.43;8.02;;;13.20;99.90;;;;;;5028833;28;20041;-84
2022/10/10 08:52:40;;;;;;;12.32;7.15;;;13.30;99.90;;;;;;5021816;28;20045;-84
2022/10/10 08:55:16;;;;;;;11.55;7.28;;;13.40;99.90;;;;;;5022121;28;20052;-84
2022/10/10 08:57:57;;;;;;;10.93;7.63;;;13.40;99.90;;;;;;5021952;28;20125;-83
2022/10/10 09:00:27;;;;;;;8.48;7.20;;;13.50;99.90;;;;;;5013441;28;20107;-83
2022/10/10 09:02:56;;;;;;;10.38;7.32;;;13.50;99.90;;;;;;5022564;28;20059;-84
2022/10/10 09:05:50;;;;;;;9.93;7.10;;;13.60;99.90;;;;;;5021818;28;20128;-83
2022/10/10 09:08:37;;;;;;;12.38;7.20;;;13.70;99.90;;;;;;5021394;28;20084;-83
2022/10/10 09:11:27;;;;;;;10.88;7.18;;;13.80;99.90;;;;;;5038533;28;20084;-84
2022/10/10 09:14:18;;;;;;;8.63;6.63;;;13.90;99.90;;;;;;5046262;28;20107;-84
2022/10/10 09:16:53;;;;;;;11.65;7.30;;;14.00;99.90;;;;;;5004111;28;20046;-83
2022/10/10 09:19:46;;;;;;;10.73;6.67;;;14.10;99.90;;;;;;5004907;28;20042;-83
2022/10/10 09:22:19;;;;;;;13.88;7.35;;;14.30;99.90;;;;;;5037192;28;20052;-85
2022/10/10 09:24:52;;;;;;;11.55;7.88;;;14.40;99.90;;;;;;5003477;28;20066;-83
2022/10/10 09:27:33;;;;;;;10.45;6.82;;;14.50;99.90;;;;;;5020367;28;20406;-84
2022/10/10 09:30:14;;;;;;;9.80;6.97;;;14.60;99.90;;;;;;5028408;28;20152;-84
2022/10/10 09:32:53;;;;;;;10.65;6.97;;;14.50;99.90;;;;;;5020868;28;20057;-83
2022/10/10 09:35:28;;;;;;;10.43;7.10;;;15.30;99.90;;;;;;5021286;28;20070;-84
2022/10/10 09:38:19;;;;;;;11.57;7.10;;;14.60;99.90;;;;;;5019956;28;20125;-84
2022/10/10 09:40:52;;;;;;;11.70;5.75;;;14.60;99.90;;;;;;5019692;28;20045;-82
2022/10/10 09:43:20;;;;;;;12.68;6.90;;;14.60;99.90;;;;;;5021351;28;20060;-85
2022/10/10 09:45:57;;;;;;;15.32;7.00;;;14.60;99.90;;;;;;5037175;28;20179;-84
2022/10/10 09:48:47;;;;;;;8.57;6.50;;;14.60;99.90;;;;;;5004697;28;20223;-85
2022/10/10 09:51:16;;;;;;;10.43;6.40;;;14.60;99.90;;;;;;5020746;28;20053;-85
2022/10/10 09:53:43;;;;;;;9.63;6.10;;;14.70;99.90;;;;;;5021549;28;20068;-85
2022/10/10 09:56:29;;;;;;;13.30;6.78;;;14.70;99.90;;;;;;5003639;28;20128;-83
2022/10/10 09:58:56;;;;;;;11.43;6.60;;;14.80;99.90;;;;;;5018219;28;20124;-84
2022/10/10 10:01:25;;;;;;;11.18;6.30;;;14.80;99.90;;;;;;5003998;28;20140;-84
2022/10/10 10:04:06;;;;;;;8.57;5.90;;;14.80;99.90;;;;;;5019652;28;20100;-85
2022/10/10 10:06:32;;;;;;;10.30;7.20;;;14.80;99.90;;;;;;5001877;28;20069;-84
2022/10/10 10:09:03;;;;;;;11.20;6.35;;;14.70;99.90;;;;;;5002701;28;20515;-84
2022/10/10 10:11:40;;;;;;;12.15;6.90;;;14.90;99.90;;;;;;5018728;28;20569;-84
2022/10/10 10:14:34;;;;;;;12.63;6.57;;;14.60;99.90;;;;;;5017494;28;20494;-85
2022/10/10 10:17:15;;;;;;;11.73;7.32;;;14.50;99.90;;;;;;5016964;28;20065;-84
2022/10/10 10:19:46;;;;;;;10.98;6.43;;;14.40;99.90;;;;;;5035142;28;20045;-86
2022/10/10 10:22:37;;;;;;;8.63;6.63;;;14.50;99.90;;;;;;5019897;28;20056;-84
2022/10/10 10:25:46;;;;;;;11.50;7.13;;;14.40;99.90;;;;;;5019613;28;20044;-84
2022/10/10 10:28:20;;;;;;;9.93;7.38;;;14.40;99.90;;;;;;5026572;28;20049;-85
2022/10/10 10:30:46;;;;;;;9.50;6.90;;;14.40;99.90;;;;;;5042729;28;20133;-84
2022/10/10 10:33:20;;;;;;;12.48;7.07;;;14.40;99.90;;;;;;5002636;28;20549;-85
2022/10/10 10:36:00;;;;;;;12.75;7.70;;;14.30;99.90;;;;;;5010316;28;20057;-85
2022/10/10 10:38:47;;;;;;;10.55;7.20;;;14.30;99.90;;;;;;5003675;28;20582;-84
2022/10/10 10:41:21;;;;;;;10.90;6.65;;;14.30;99.90;;;;;;5026617;28;20057;-85
2022/10/10 10:43:53;;;;;;;14.27;7.28;;;14.30;99.90;;;;;;5020177;28;20083;-84
2022/10/10 10:46:53;;;;;;;16.67;7.63;;;14.20;99.90;;;;;;5019780;28;20140;-84
2022/10/10 10:49:34;;;;;;;13.43;7.45;;;14.20;99.90;;;;;;5003578;28;20050;-86
2022/10/10 10:52:10;;;;;;;11.23;6.78;;;14.20;99.90;;;;;;5017765;28;20077;-86
2022/10/10 10:54:44;;;;;;;8.82;6.78;;;14.20;99.90;;;;;;5011194;28;20104;-85
2022/10/10 10:57:32;;;;;;;11.90;6.68;;;14.30;99.90;;;;;;5002387;28;20099;-84
2022/10/10 11:00:19;;;;;;;11.57;6.70;;;14.40;99.90;;;;;;5009292;28;20041;-83
2022/10/10 11:03:17;;;;;;;13.20;6.40;;;14.60;99.90;;;;;;5008241;28;20164;-84
2022/10/10 11:06:04;;;;;;;13.00;6.82;;;14.80;99.90;;;;;;5019351;28;20065;-83
2022/10/10 11:08:48;;;;;;;11.18;6.80;;;14.80;99.90;;;;;;5019265;28;20116;-84
2022/10/10 11:11:43;;;;;;;10.93;5.90;;;14.80;99.90;;;;;;5036584;28;20049;-83
2022/10/10 11:14:47;;;;;;;11.07;5.50;;;14.80;99.90;;;;;;5001711;28;20671;-83
2022/10/10 11:17:24;;;;;;;10.32;4.97;;;14.80;99.90;;;;;;5016128;28;20058;-86
2022/10/10 11:19:58;;;;;;;10.00;4.82;;;14.80;99.90;;;;;;5022787;28;20112;-83
2022/10/10 11:22:35;;;;;;;10.55;3.50;;;14.80;99.90;;;;;;5017487;28;20077;-83
2022/10/10 11:25:36;;;;;;;9.95;3.53;;;14.80;99.90;;;;;;5019095;28;20053;-84
2022/10/10 11:28:10;;;;;;;8.38;3.33;;;14.80;99.90;;;;;;4999007;28;20049;-83
2022/10/10 11:30:43;;;;;;;8.13;2.72;;;14.80;99.90;;;;;;5004047;28;20562;-83
2022/10/10 11:33:18;;;;;;;9.38;2.70;;;14.70;99.90;;;;;;5015255;28;20099;-82
2022/10/10 11:35:50;;;;;;;8.40;2.53;;;14.70;99.90;;;;;;5016133;28;20053;-83
2022/10/10 11:38:39;;;;;;;7.18;2.50;;;14.60;99.90;;;;;;5016837;28;20308;-84
2022/10/10 11:41:12;;;;;;;5.68;2.15;;;14.50;99.90;;;;;;5018790;28;20052;-88
2022/10/10 11:44:07;;;;;;;7.30;2.38;;;14.40;99.90;;;;;;5007359;28;20041;-86
2022/10/10 11:46:45;;;;;;;6.95;2.20;;;14.30;99.90;;;;;;4996480;28;20057;-85
2022/10/10 11:49:12;;;;;;;6.25;2.58;;;14.30;99.90;;;;;;5005457;28;20548;-86
2022/10/10 11:52:11;;;;;;;6.53;2.08;;;14.30;99.90;;;;;;5014147;28;20056;-84
2022/10/10 11:55:17;;;;;;;6.72;2.10;;;14.30;99.90;;;;;;5009500;28;20444;-83
2022/10/10 11:57:52;;;;;;;7.40;2.38;;;14.20;99.90;;;;;;5016088;28;20518;-83
2022/10/10 12:00:18;;;;;;;5.47;2.20;;;14.20;99.90;;;;;;5024909;28;20188;-83
2022/10/10 12:02:46;;;;;;;7.07;1.80;;;14.20;99.90;;;;;;5023074;28;20347;-83
2022/10/10 12:05:20;;;;;;;8.82;1.90;;;14.10;99.90;;;;;;5025180;28;20410;-85
2022/10/10 12:07:55;;;;;;;8.13;1.27;;;14.10;99.90;;;;;;4999233;28;20502;-85
2022/10/10 12:10:25;;;;;;;6.13;1.40;;;14.10;99.90;;;;;;5017489;28;20046;-84
2022/10/10 12:12:56;;;;;;;7.13;1.08;;;14.00;99.90;;;;;;5032566;28;20063;-83
2022/10/10 12:15:29;;;;;;;6.38;1.40;;;13.90;99.90;;;;;;5021441;28;20092;-84
2022/10/10 12:17:55;;;;;;;11.73;2.13;;;13.80;99.90;;;;;;5020533;28;20045;-82
2022/10/10 12:20:30;;;;;;;8.45;1.67;;;13.60;99.90;;;;;;5037147;28;20062;-83
2022/10/10 12:23:13;;;;;;;10.68;1.73;;;13.50;99.90;;;;;;5018857;28;20067;-83
2022/10/10 12:25:41;;;;;;;8.98;2.22;;;13.40;99.90;;;;;;5002586;28;20137;-81
2022/10/10 12:28:12;;;;;;;7.15;1.98;;;13.30;99.90;;;;;;5019887;28;20511;-82
2022/10/10 12:30:53;;;;;;;11.27;1.75;;;13.20;99.90;;;;;;5010726;28;20140;-83
2022/10/10 12:33:42;;;;;;;11.68;2.00;;;13.20;99.90;;;;;;5010647;28;20061;-83
2022/10/10 12:36:40;;;;;;;11.43;2.00;;;13.10;99.90;;;;;;5020724;28;20049;-83
2022/10/10 12:39:09;;;;;;;15.88;2.25;;;13.00;99.90;;;;;;5019517;28;20068;-82
2022/10/10 12:41:55;;;;;;;13.13;2.63;;;12.90;99.90;;;;;;5028528;28;20037;-81
2022/10/10 12:44:41;;;;;;;14.45;2.08;;;12.80;99.90;;;;;;4996059;28;20067;-82
2022/10/10 12:47:13;;;;;;;11.70;1.90;;;12.80;99.90;;;;;;5022191;28;20736;-82
2022/10/10 12:50:01;;;;;;;12.95;2.47;;;12.80;99.90;;;;;;5003706;28;20274;-82
2022/10/10 12:52:51;;;;;;;11.15;1.83;;;12.70;99.90;;;;;;5018820;28;20045;-82
2022/10/10 12:55:25;;;;;;;10.70;1.98;;;12.70;99.90;;;;;;5019597;28;20046;-82
2022/10/10 12:57:54;;;;;;;12.60;2.20;;;12.70;99.90;;;;;;5018646;28;20073;-83
2022/10/10 13:00:23;;;;;;;9.40;1.90;;;12.90;99.90;;;;;;5017051;28;20037;-83
2022/10/10 13:02:58;;;;;;;13.68;3.63;;;12.70;99.90;;;;;;5018381;28;20075;-82
2022/10/10 13:05:34;;;;;;;8.93;2.50;;;12.80;99.90;;;;;;5006970;28;20455;-83
2022/10/10 13:08:04;;;;;;;11.30;2.67;;;12.80;99.90;;;;;;5019092;28;20053;-83
2022/10/10 13:10:31;;;;;;;11.80;4.13;;;12.80;99.90;;;;;;5030240;28;20073;-83
2022/10/10 13:13:17;;;;;;;15.52;3.47;;;12.80;99.90;;;;;;5002879;28;20045;-83